Terminal Aerodrome Forecast
Issued by NWS Cleveland, OH

Home | Current Version | Previous Version | Graphics & Text | Print | Product List | Glossary On
Versions: 1 2 3 4 5 6 7 8 9 10 11 12 13 14 15 16 17 18 19 20
703
FTUS41 KCLE 022052 AAA
TAFMFD
TAF AMD
KMFD 022052Z 0221/0318 26010G15KT P6SM OVC035
      TEMPO 0221/0224 2SM -SHRA OVC025
     FM030100 27007KT P6SM OVC035
     FM031100 27005KT 6SM BR OVC025
     FM031600 27006KT P6SM OVC025=

USA.gov is the U.S. government's official web portal to all federal, state and local government web resources and services.